createdAt,value
2018-02-14T06:50:49.747Z,22.00
2018-02-14T06:53:18.434Z,21.80
2018-02-14T06:55:46.723Z,19.70
2018-02-14T06:58:15.154Z,19.20
2018-02-14T07:00:43.815Z,20.20
2018-02-14T07:03:12.453Z,21.10
2018-02-14T07:05:41.707Z,22.00
2018-02-14T07:08:10.418Z,21.90
2018-02-14T07:10:39.863Z,22.10
2018-02-14T07:13:08.126Z,22.10
2018-02-14T07:15:37.039Z,22.20
2018-02-14T07:18:05.090Z,22.20
2018-02-14T07:20:33.702Z,22.20
2018-02-14T07:23:01.770Z,22.20
2018-02-14T07:25:29.887Z,22.20
2018-02-14T07:28:00.611Z,22.20
2018-02-14T07:30:28.832Z,22.20
2018-02-14T07:32:56.768Z,22.20
2018-02-14T07:35:24.871Z,22.60
2018-02-14T07:37:52.939Z,22.70
2018-02-14T07:40:21.750Z,22.70
2018-02-14T07:42:50.051Z,22.80
2018-02-14T07:45:18.452Z,22.80
2018-02-14T07:47:46.690Z,23.00
2018-02-14T07:50:15.526Z,23.10
2018-02-14T07:52:45.259Z,23.20
2018-02-14T07:55:14.132Z,23.20
2018-02-14T07:57:43.150Z,23.20
2018-02-14T08:00:11.660Z,23.20
2018-02-14T08:02:39.707Z,23.20
2018-02-14T08:05:07.626Z,23.10
2018-02-14T08:07:36.500Z,23.10
2018-02-14T08:10:04.600Z,23.10
2018-02-14T08:12:32.979Z,23.00
2018-02-14T08:15:01.341Z,23.10
2018-02-14T08:17:30.239Z,23.20
2018-02-14T08:19:58.508Z,23.10
2018-02-14T08:22:27.502Z,23.10
2018-02-14T08:24:56.286Z,23.10
2018-02-14T08:27:24.811Z,23.00
2018-02-14T08:29:57.882Z,22.90
2018-02-14T08:32:27.687Z,22.90
2018-02-14T08:34:55.691Z,23.00
2018-02-14T08:37:24.204Z,23.20
2018-02-14T08:39:52.563Z,23.30
2018-02-14T08:42:33.887Z,23.40
2018-02-14T08:45:10.118Z,23.50
2018-02-14T08:47:39.483Z,23.30
2018-02-14T08:50:08.200Z,23.30
2018-02-14T08:52:37.075Z,23.40
2018-02-14T08:55:05.586Z,23.40
2018-02-14T08:57:34.955Z,23.50
2018-02-14T09:00:03.725Z,23.50
2018-02-14T09:02:35.417Z,23.50
2018-02-14T09:05:04.256Z,23.50
2018-02-14T09:07:33.167Z,23.40
2018-02-14T09:10:02.307Z,23.60
2018-02-14T09:12:31.514Z,23.50
2018-02-14T09:15:00.394Z,23.50
2018-02-14T09:17:28.867Z,23.50
2018-02-14T09:19:57.009Z,23.30
2018-02-14T09:22:25.312Z,23.50
2018-02-14T09:24:54.000Z,23.70
2018-02-14T09:27:23.709Z,23.80
2018-02-14T09:29:52.379Z,23.90
2018-02-14T09:32:21.347Z,23.80
2018-02-14T09:34:50.162Z,23.90
2018-02-14T09:37:21.976Z,23.80
2018-02-14T09:39:50.520Z,23.80
2018-02-14T09:42:25.875Z,23.90
2018-02-14T09:44:54.872Z,23.80
2018-02-14T09:47:30.237Z,23.60
2018-02-14T09:49:59.021Z,23.60
2018-02-14T09:52:27.688Z,23.50
2018-02-14T09:54:56.558Z,23.60
2018-02-14T09:57:25.126Z,23.70
2018-02-14T09:59:54.181Z,23.80
2018-02-14T10:02:22.714Z,23.80
2018-02-14T10:04:51.368Z,23.80
2018-02-14T10:07:20.598Z,23.80
2018-02-14T10:09:50.180Z,23.80
2018-02-14T10:12:19.618Z,23.80
2018-02-14T10:14:48.143Z,23.90
2018-02-14T10:17:16.873Z,23.90
2018-02-14T10:19:45.604Z,23.90
2018-02-14T10:22:14.264Z,24.00
2018-02-14T10:24:42.718Z,24.00
2018-02-14T10:27:15.536Z,23.80
2018-02-14T10:29:44.513Z,23.90
2018-02-14T10:32:13.174Z,23.90
2018-02-14T10:34:42.367Z,23.90
2018-02-14T10:37:11.294Z,23.90
2018-02-14T10:39:40.264Z,23.90
2018-02-14T10:42:09.043Z,23.90
2018-02-14T10:44:38.241Z,24.00
2018-02-14T10:47:06.971Z,23.70
2018-02-14T10:49:36.266Z,23.70
2018-02-14T10:52:04.558Z,23.70
2018-02-14T10:54:38.241Z,23.90
2018-02-14T10:57:06.887Z,24.00
2018-02-14T10:59:36.760Z,23.80
2018-02-14T11:02:05.935Z,23.80
2018-02-14T11:59:30.485Z,23.30
2018-02-14T12:01:59.457Z,23.30
2018-02-14T12:04:27.501Z,23.50
2018-02-14T12:07:00.588Z,23.50
2018-02-14T12:09:28.781Z,23.60
2018-02-14T12:12:00.397Z,23.70
2018-02-14T12:14:29.114Z,23.70
2018-02-14T12:16:57.466Z,23.70
2018-02-14T12:19:25.710Z,23.70
2018-02-14T12:21:53.753Z,23.80
2018-02-14T12:24:22.200Z,23.70
2018-02-14T12:26:50.520Z,23.50
2018-02-14T12:29:18.464Z,23.30
2018-02-14T12:31:46.568Z,23.40
2018-02-14T12:34:15.026Z,23.50
2018-02-14T12:36:44.208Z,23.70
2018-02-14T12:39:12.476Z,23.70
2018-02-14T12:41:40.703Z,23.70
2018-02-14T12:44:09.511Z,23.80
2018-02-14T12:46:38.259Z,23.80
2018-02-14T12:49:07.121Z,23.90
2018-02-14T12:51:36.647Z,23.90
2018-02-14T12:54:05.694Z,24.00
2018-02-14T12:56:34.018Z,23.90
2018-02-14T12:59:03.308Z,23.90
2018-02-14T13:01:32.174Z,23.80
2018-02-14T13:04:00.572Z,23.80
2018-02-14T13:06:29.146Z,23.70
2018-02-14T13:08:59.288Z,23.80
2018-02-14T13:11:27.453Z,23.80
2018-02-14T13:13:55.612Z,23.90
2018-02-14T13:16:24.918Z,23.80
2018-02-14T13:18:53.969Z,23.80
2018-02-14T13:21:22.168Z,23.80
2018-02-14T13:23:50.232Z,24.00
2018-02-14T13:26:18.224Z,24.10
2018-02-14T13:28:47.557Z,24.10
2018-02-14T13:31:15.619Z,24.10
2018-02-14T13:33:43.947Z,24.20
2018-02-14T13:36:11.910Z,24.20
2018-02-14T13:38:40.387Z,24.20
2018-02-14T13:41:08.459Z,24.10
2018-02-14T13:43:36.601Z,23.90
2018-02-14T13:46:04.807Z,23.70
2018-02-14T13:48:33.466Z,23.80
2018-02-14T13:51:01.570Z,23.80
2018-02-14T13:53:29.624Z,23.80
2018-02-14T13:55:58.025Z,23.80
2018-02-14T13:58:26.175Z,23.80
2018-02-14T14:00:55.282Z,24.00
2018-02-14T14:03:23.322Z,24.10
2018-02-14T14:05:51.421Z,24.10
2018-02-14T14:08:19.916Z,24.20
2018-02-14T14:10:47.876Z,23.90
2018-02-14T14:23:10.647Z,23.70
2018-02-14T14:28:49.937Z,24.00
2018-02-14T15:04:42.241Z,23.60
2018-02-14T15:10:10.603Z,23.50
2018-02-14T15:15:56.202Z,23.60
2018-02-14T15:18:38.540Z,24.00
2018-02-14T15:21:26.566Z,23.90
2018-02-14T15:24:05.790Z,24.00
2018-02-14T15:26:48.513Z,24.00
2018-02-14T15:29:36.669Z,24.10
2018-02-14T15:34:54.415Z,24.00
2018-02-14T15:37:40.640Z,23.90
2018-02-14T15:43:44.846Z,23.80
2018-02-14T15:46:37.984Z,23.60
2018-02-14T15:52:24.936Z,24.10
2018-02-14T16:01:34.953Z,23.90
2018-02-14T16:04:13.734Z,23.90
